sensor_id;sensor_type;location;lat;lon;timestamp;P1;durP1;ratioP1;P2;durP2;ratioP2
68140;SDS011;54941;52.220;104.306;2023-07-22T00:00:21;8.40;;;5.60;;
68140;SDS011;54941;52.220;104.306;2023-07-22T00:02:47;7.13;;;5.20;;
68140;SDS011;54941;52.220;104.306;2023-07-22T00:05:14;7.43;;;5.47;;
68140;SDS011;54941;52.220;104.306;2023-07-22T00:07:42;7.18;;;5.25;;
68140;SDS011;54941;52.220;104.306;2023-07-22T00:10:09;7.93;;;5.90;;
68140;SDS011;54941;52.220;104.306;2023-07-22T00:12:36;7.10;;;5.32;;
68140;SDS011;54941;52.220;104.306;2023-07-22T00:15:03;6.78;;;5.30;;
68140;SDS011;54941;52.220;104.306;2023-07-22T00:17:32;7.03;;;5.65;;
68140;SDS011;54941;52.220;104.306;2023-07-22T00:19:58;6.70;;;4.93;;
68140;SDS011;54941;52.220;104.306;2023-07-22T00:22:24;7.50;;;5.50;;
68140;SDS011;54941;52.220;104.306;2023-07-22T00:24:52;7.25;;;5.22;;
68140;SDS011;54941;52.220;104.306;2023-07-22T00:27:19;6.32;;;5.35;;
68140;SDS011;54941;52.220;104.306;2023-07-22T00:29:45;6.97;;;5.60;;
68140;SDS011;54941;52.220;104.306;2023-07-22T00:32:11;6.28;;;5.15;;
68140;SDS011;54941;52.220;104.306;2023-07-22T00:34:38;7.07;;;5.40;;
68140;SDS011;54941;52.220;104.306;2023-07-22T00:37:04;6.72;;;5.55;;
68140;SDS011;54941;52.220;104.306;2023-07-22T00:39:30;6.47;;;5.43;;
68140;SDS011;54941;52.220;104.306;2023-07-22T00:41:58;6.88;;;5.70;;
68140;SDS011;54941;52.220;104.306;2023-07-22T00:44:24;7.72;;;5.97;;
68140;SDS011;54941;52.220;104.306;2023-07-22T00:46:51;6.15;;;5.30;;
68140;SDS011;54941;52.220;104.306;2023-07-22T00:49:22;6.93;;;5.55;;
68140;SDS011;54941;52.220;104.306;2023-07-22T00:51:50;8.35;;;5.88;;
68140;SDS011;54941;52.220;104.306;2023-07-22T00:54:16;7.28;;;5.85;;
68140;SDS011;54941;52.220;104.306;2023-07-22T00:56:43;7.20;;;5.28;;
68140;SDS011;54941;52.220;104.306;2023-07-22T00:59:11;7.07;;;5.40;;
68140;SDS011;54941;52.220;104.306;2023-07-22T01:01:40;6.47;;;4.93;;
68140;SDS011;54941;52.220;104.306;2023-07-22T01:04:06;8.27;;;5.25;;
68140;SDS011;54941;52.220;104.306;2023-07-22T01:06:32;8.43;;;6.20;;
68140;SDS011;54941;52.220;104.306;2023-07-22T01:09:00;7.57;;;6.00;;
68140;SDS011;54941;52.220;104.306;2023-07-22T01:11:27;6.60;;;5.13;;
68140;SDS011;54941;52.220;104.306;2023-07-22T01:13:53;7.18;;;5.03;;
68140;SDS011;54941;52.220;104.306;2023-07-22T01:16:21;7.68;;;5.70;;
68140;SDS011;54941;52.220;104.306;2023-07-22T01:18:47;6.70;;;5.57;;
68140;SDS011;54941;52.220;104.306;2023-07-22T01:21:14;6.72;;;5.50;;
68140;SDS011;54941;52.220;104.306;2023-07-22T01:23:42;7.20;;;5.35;;
68140;SDS011;54941;52.220;104.306;2023-07-22T01:26:09;5.85;;;4.70;;
68140;SDS011;54941;52.220;104.306;2023-07-22T01:28:36;7.70;;;6.30;;
68140;SDS011;54941;52.220;104.306;2023-07-22T01:31:02;6.80;;;5.07;;
68140;SDS011;54941;52.220;104.306;2023-07-22T01:33:28;6.50;;;4.93;;
68140;SDS011;54941;52.220;104.306;2023-07-22T01:35:55;7.18;;;5.20;;
68140;SDS011;54941;52.220;104.306;2023-07-22T01:38:21;6.63;;;5.70;;
68140;SDS011;54941;52.220;104.306;2023-07-22T01:40:49;8.70;;;5.38;;
68140;SDS011;54941;52.220;104.306;2023-07-22T01:43:15;8.18;;;5.85;;
68140;SDS011;54941;52.220;104.306;2023-07-22T01:45:41;8.77;;;6.10;;
68140;SDS011;54941;52.220;104.306;2023-07-22T01:48:08;8.05;;;5.85;;
68140;SDS011;54941;52.220;104.306;2023-07-22T01:50:34;7.45;;;5.45;;
68140;SDS011;54941;52.220;104.306;2023-07-22T01:53:00;6.93;;;5.55;;
68140;SDS011;54941;52.220;104.306;2023-07-22T01:55:27;6.20;;;5.38;;
68140;SDS011;54941;52.220;104.306;2023-07-22T01:57:55;6.40;;;5.35;;
68140;SDS011;54941;52.220;104.306;2023-07-22T02:00:21;7.22;;;5.53;;
68140;SDS011;54941;52.220;104.306;2023-07-22T02:02:47;8.90;;;5.45;;
68140;SDS011;54941;52.220;104.306;2023-07-22T02:05:13;8.30;;;5.15;;
68140;SDS011;54941;52.220;104.306;2023-07-22T02:07:40;7.30;;;5.25;;
68140;SDS011;54941;52.220;104.306;2023-07-22T02:10:07;7.20;;;5.95;;
68140;SDS011;54941;52.220;104.306;2023-07-22T02:12:33;8.63;;;5.50;;
68140;SDS011;54941;52.220;104.306;2023-07-22T02:15:03;6.28;;;5.35;;
68140;SDS011;54941;52.220;104.306;2023-07-22T02:17:36;7.57;;;5.07;;
68140;SDS011;54941;52.220;104.306;2023-07-22T02:20:22;7.43;;;5.85;;
68140;SDS011;54941;52.220;104.306;2023-07-22T02:22:49;5.75;;;4.88;;
68140;SDS011;54941;52.220;104.306;2023-07-22T02:25:16;6.40;;;5.05;;
68140;SDS011;54941;52.220;104.306;2023-07-22T02:27:42;8.05;;;4.95;;
68140;SDS011;54941;52.220;104.306;2023-07-22T02:30:10;6.53;;;4.47;;
68140;SDS011;54941;52.220;104.306;2023-07-22T02:32:37;6.00;;;4.70;;
68140;SDS011;54941;52.220;104.306;2023-07-22T02:35:04;6.00;;;5.00;;
68140;SDS011;54941;52.220;104.306;2023-07-22T02:37:31;7.50;;;6.22;;
68140;SDS011;54941;52.220;104.306;2023-07-22T02:39:57;7.57;;;5.32;;
68140;SDS011;54941;52.220;104.306;2023-07-22T02:42:23;7.38;;;5.22;;
68140;SDS011;54941;52.220;104.306;2023-07-22T02:44:50;6.00;;;4.63;;
68140;SDS011;54941;52.220;104.306;2023-07-22T02:47:20;8.48;;;5.22;;
68140;SDS011;54941;52.220;104.306;2023-07-22T02:49:47;7.22;;;5.82;;
68140;SDS011;54941;52.220;104.306;2023-07-22T02:52:13;6.88;;;4.72;;
68140;SDS011;54941;52.220;104.306;2023-07-22T02:54:39;6.80;;;4.88;;
68140;SDS011;54941;52.220;104.306;2023-07-22T02:57:06;12.30;;;10.10;;
68140;SDS011;54941;52.220;104.306;2023-07-22T02:59:32;5.57;;;4.55;;
68140;SDS011;54941;52.220;104.306;2023-07-22T03:01:59;6.28;;;5.35;;
68140;SDS011;54941;52.220;104.306;2023-07-22T03:04:27;6.93;;;4.88;;
68140;SDS011;54941;52.220;104.306;2023-07-22T03:06:53;6.28;;;4.80;;
68140;SDS011;54941;52.220;104.306;2023-07-22T03:09:19;5.55;;;4.72;;
68140;SDS011;54941;52.220;104.306;2023-07-22T03:11:46;5.03;;;4.40;;
68140;SDS011;54941;52.220;104.306;2023-07-22T03:14:12;5.70;;;4.70;;
68140;SDS011;54941;52.220;104.306;2023-07-22T03:16:38;5.13;;;4.25;;
68140;SDS011;54941;52.220;104.306;2023-07-22T03:19:04;5.50;;;4.38;;
68140;SDS011;54941;52.220;104.306;2023-07-22T03:21:32;5.35;;;4.18;;
68140;SDS011;54941;52.220;104.306;2023-07-22T03:23:59;5.55;;;4.60;;
68140;SDS011;54941;52.220;104.306;2023-07-22T03:26:25;5.53;;;4.25;;
68140;SDS011;54941;52.220;104.306;2023-07-22T03:28:51;5.50;;;4.32;;
68140;SDS011;54941;52.220;104.306;2023-07-22T03:31:18;4.68;;;3.67;;
68140;SDS011;54941;52.220;104.306;2023-07-22T03:33:44;5.18;;;3.60;;
68140;SDS011;54941;52.220;104.306;2023-07-22T03:36:10;3.97;;;3.33;;
68140;SDS011;54941;52.220;104.306;2023-07-22T03:38:38;4.93;;;3.65;;
68140;SDS011;54941;52.220;104.306;2023-07-22T03:41:04;5.72;;;3.97;;
68140;SDS011;54941;52.220;104.306;2023-07-22T03:43:31;4.60;;;3.70;;
68140;SDS011;54941;52.220;104.306;2023-07-22T03:45:57;4.90;;;3.20;;
68140;SDS011;54941;52.220;104.306;2023-07-22T03:48:24;5.32;;;3.38;;
68140;SDS011;54941;52.220;104.306;2023-07-22T03:50:50;5.07;;;4.20;;
68140;SDS011;54941;52.220;104.306;2023-07-22T03:53:16;4.72;;;3.38;;
68140;SDS011;54941;52.220;104.306;2023-07-22T03:55:44;5.00;;;3.33;;
68140;SDS011;54941;52.220;104.306;2023-07-22T03:58:10;4.32;;;3.05;;
68140;SDS011;54941;52.220;104.306;2023-07-22T04:00:37;4.15;;;3.15;;
68140;SDS011;54941;52.220;104.306;2023-07-22T04:03:04;4.47;;;3.47;;
68140;SDS011;54941;52.220;104.306;2023-07-22T04:05:32;3.97;;;3.10;;
68140;SDS011;54941;52.220;104.306;2023-07-22T04:07:58;4.32;;;3.05;;
68140;SDS011;54941;52.220;104.306;2023-07-22T04:10:25;4.82;;;3.03;;
68140;SDS011;54941;52.220;104.306;2023-07-22T04:12:52;4.68;;;3.10;;
68140;SDS011;54941;52.220;104.306;2023-07-22T04:15:19;4.25;;;2.80;;
68140;SDS011;54941;52.220;104.306;2023-07-22T04:17:45;4.80;;;3.70;;
68140;SDS011;54941;52.220;104.306;2023-07-22T04:20:11;3.85;;;2.90;;
68140;SDS011;54941;52.220;104.306;2023-07-22T04:22:38;4.63;;;2.92;;
68140;SDS011;54941;52.220;104.306;2023-07-22T04:25:04;4.10;;;3.20;;
68140;SDS011;54941;52.220;104.306;2023-07-22T04:27:31;8.98;;;7.22;;
68140;SDS011;54941;52.220;104.306;2023-07-22T04:29:59;3.95;;;3.17;;
68140;SDS011;54941;52.220;104.306;2023-07-22T04:32:26;4.80;;;3.22;;
68140;SDS011;54941;52.220;104.306;2023-07-22T04:34:52;4.20;;;2.88;;
68140;SDS011;54941;52.220;104.306;2023-07-22T04:37:23;4.53;;;3.10;;
68140;SDS011;54941;52.220;104.306;2023-07-22T04:39:49;4.22;;;3.42;;
68140;SDS011;54941;52.220;104.306;2023-07-22T04:42:15;4.72;;;3.30;;
68140;SDS011;54941;52.220;104.306;2023-07-22T04:44:42;5.93;;;3.10;;
68140;SDS011;54941;52.220;104.306;2023-07-22T04:47:10;3.75;;;3.03;;
68140;SDS011;54941;52.220;104.306;2023-07-22T04:49:36;5.30;;;2.95;;
68140;SDS011;54941;52.220;104.306;2023-07-22T04:52:03;5.00;;;3.28;;
68140;SDS011;54941;52.220;104.306;2023-07-22T04:54:29;4.57;;;3.08;;
68140;SDS011;54941;52.220;104.306;2023-07-22T04:56:56;4.00;;;3.20;;
68140;SDS011;54941;52.220;104.306;2023-07-22T04:59:22;4.63;;;3.20;;
68140;SDS011;54941;52.220;104.306;2023-07-22T05:01:48;4.85;;;3.33;;
68140;SDS011;54941;52.220;104.306;2023-07-22T05:04:16;4.20;;;3.38;;
68140;SDS011;54941;52.220;104.306;2023-07-22T05:06:42;3.65;;;2.75;;
68140;SDS011;54941;52.220;104.306;2023-07-22T05:09:09;3.80;;;2.95;;
68140;SDS011;54941;52.220;104.306;2023-07-22T05:11:35;6.63;;;3.30;;
68140;SDS011;54941;52.220;104.306;2023-07-22T05:14:01;4.40;;;3.17;;
68140;SDS011;54941;52.220;104.306;2023-07-22T05:16:28;5.68;;;3.13;;
68140;SDS011;54941;52.220;104.306;2023-07-22T05:18:54;6.40;;;3.50;;
68140;SDS011;54941;52.220;104.306;2023-07-22T05:21:22;4.45;;;2.95;;
68140;SDS011;54941;52.220;104.306;2023-07-22T05:23:48;4.80;;;3.33;;
68140;SDS011;54941;52.220;104.306;2023-07-22T05:26:14;5.80;;;3.40;;
68140;SDS011;54941;52.220;104.306;2023-07-22T05:28:41;4.75;;;3.55;;
68140;SDS011;54941;52.220;104.306;2023-07-22T05:31:07;4.93;;;3.25;;
68140;SDS011;54941;52.220;104.306;2023-07-22T05:33:33;4.90;;;3.42;;
68140;SDS011;54941;52.220;104.306;2023-07-22T05:36:00;5.18;;;3.25;;
68140;SDS011;54941;52.220;104.306;2023-07-22T05:38:28;4.00;;;3.05;;
68140;SDS011;54941;52.220;104.306;2023-07-22T05:40:54;3.90;;;3.03;;
68140;SDS011;54941;52.220;104.306;2023-07-22T05:43:23;4.60;;;3.30;;
68140;SDS011;54941;52.220;104.306;2023-07-22T05:45:49;4.18;;;3.25;;
68140;SDS011;54941;52.220;104.306;2023-07-22T05:48:15;6.00;;;3.40;;
68140;SDS011;54941;52.220;104.306;2023-07-22T05:50:42;4.35;;;2.80;;
68140;SDS011;54941;52.220;104.306;2023-07-22T05:53:08;5.00;;;3.17;;
68140;SDS011;54941;52.220;104.306;2023-07-22T05:55:36;5.00;;;3.22;;
68140;SDS011;54941;52.220;104.306;2023-07-22T05:58:02;4.95;;;3.42;;
68140;SDS011;54941;52.220;104.306;2023-07-22T06:00:32;4.45;;;3.30;;
68140;SDS011;54941;52.220;104.306;2023-07-22T06:02:59;4.22;;;3.60;;
68140;SDS011;54941;52.220;104.306;2023-07-22T06:05:25;4.25;;;3.10;;
68140;SDS011;54941;52.220;104.306;2023-07-22T06:07:51;4.45;;;2.97;;
68140;SDS011;54941;52.220;104.306;2023-07-22T06:10:18;4.35;;;3.00;;
68140;SDS011;54941;52.220;104.306;2023-07-22T06:12:46;4.55;;;3.28;;
68140;SDS011;54941;52.220;104.306;2023-07-22T06:15:13;5.85;;;3.67;;
68140;SDS011;54941;52.220;104.306;2023-07-22T06:17:39;4.45;;;3.20;;
68140;SDS011;54941;52.220;104.306;2023-07-22T06:20:06;4.60;;;3.25;;
68140;SDS011;54941;52.220;104.306;2023-07-22T06:22:33;3.95;;;3.03;;
68140;SDS011;54941;52.220;104.306;2023-07-22T06:24:59;4.18;;;3.25;;
68140;SDS011;54941;52.220;104.306;2023-07-22T06:27:26;5.15;;;3.47;;
68140;SDS011;54941;52.220;104.306;2023-07-22T06:29:53;4.68;;;3.50;;
68140;SDS011;54941;52.220;104.306;2023-07-22T06:32:20;4.45;;;3.20;;
68140;SDS011;54941;52.220;104.306;2023-07-22T06:34:46;5.00;;;3.20;;
68140;SDS011;54941;52.220;104.306;2023-07-22T06:37:12;4.30;;;3.47;;
68140;SDS011;54941;52.220;104.306;2023-07-22T06:39:39;5.32;;;3.35;;
68140;SDS011;54941;52.220;104.306;2023-07-22T06:42:05;4.18;;;3.20;;
68140;SDS011;54941;52.220;104.306;2023-07-22T06:44:32;4.07;;;3.30;;
68140;SDS011;54941;52.220;104.306;2023-07-22T06:46:59;4.82;;;3.45;;
68140;SDS011;54941;52.220;104.306;2023-07-22T06:49:26;4.25;;;3.00;;
68140;SDS011;54941;52.220;104.306;2023-07-22T06:51:52;4.70;;;3.38;;
68140;SDS011;54941;52.220;104.306;2023-07-22T06:54:18;4.70;;;3.30;;
68140;SDS011;54941;52.220;104.306;2023-07-22T06:56:45;4.82;;;3.35;;
68140;SDS011;54941;52.220;104.306;2023-07-22T06:59:11;4.45;;;3.03;;
68140;SDS011;54941;52.220;104.306;2023-07-22T07:01:37;4.72;;;3.60;;
68140;SDS011;54941;52.220;104.306;2023-07-22T07:04:05;4.55;;;3.33;;
68140;SDS011;54941;52.220;104.306;2023-07-22T07:06:31;5.13;;;3.60;;
68140;SDS011;54941;52.220;104.306;2023-07-22T07:08:59;4.82;;;3.38;;
68140;SDS011;54941;52.220;104.306;2023-07-22T07:11:25;5.70;;;4.20;;
68140;SDS011;54941;52.220;104.306;2023-07-22T07:13:51;4.95;;;3.35;;
68140;SDS011;54941;52.220;104.306;2023-07-22T07:16:21;4.47;;;3.10;;
68140;SDS011;54941;52.220;104.306;2023-07-22T07:18:48;4.38;;;3.35;;
68140;SDS011;54941;52.220;104.306;2023-07-22T07:21:16;5.20;;;3.80;;
68140;SDS011;54941;52.220;104.306;2023-07-22T07:23:43;5.20;;;3.85;;
68140;SDS011;54941;52.220;104.306;2023-07-22T07:26:09;5.68;;;3.28;;
68140;SDS011;54941;52.220;104.306;2023-07-22T07:28:36;6.22;;;3.42;;
68140;SDS011;54941;52.220;104.306;2023-07-22T07:31:02;5.05;;;3.42;;
68140;SDS011;54941;52.220;104.306;2023-07-22T07:33:28;4.90;;;3.60;;
68140;SDS011;54941;52.220;104.306;2023-07-22T07:35:55;4.53;;;3.53;;
68140;SDS011;54941;52.220;104.306;2023-07-22T07:38:22;5.47;;;3.65;;
68140;SDS011;54941;52.220;104.306;2023-07-22T07:40:51;5.13;;;3.90;;
68140;SDS011;54941;52.220;104.306;2023-07-22T07:43:18;4.90;;;3.33;;
68140;SDS011;54941;52.220;104.306;2023-07-22T07:45:44;6.25;;;3.67;;
68140;SDS011;54941;52.220;104.306;2023-07-22T07:48:13;5.10;;;3.53;;
68140;SDS011;54941;52.220;104.306;2023-07-22T07:50:40;9.02;;;3.58;;
68140;SDS011;54941;52.220;104.306;2023-07-22T07:53:07;6.53;;;3.75;;
68140;SDS011;54941;52.220;104.306;2023-07-22T07:55:34;5.13;;;3.63;;
68140;SDS011;54941;52.220;104.306;2023-07-22T07:58:01;4.65;;;3.42;;
68140;SDS011;54941;52.220;104.306;2023-07-22T08:00:27;5.18;;;3.50;;
68140;SDS011;54941;52.220;104.306;2023-07-22T08:02:54;5.50;;;3.70;;
68140;SDS011;54941;52.220;104.306;2023-07-22T08:05:20;5.20;;;3.65;;
68140;SDS011;54941;52.220;104.306;2023-07-22T08:07:46;5.25;;;3.50;;
68140;SDS011;54941;52.220;104.306;2023-07-22T08:10:15;4.80;;;3.35;;
68140;SDS011;54941;52.220;104.306;2023-07-22T08:12:43;4.93;;;3.55;;
68140;SDS011;54941;52.220;104.306;2023-07-22T08:15:09;5.10;;;4.00;;
68140;SDS011;54941;52.220;104.306;2023-07-22T08:17:38;5.53;;;3.83;;
68140;SDS011;54941;52.220;104.306;2023-07-22T08:20:05;5.63;;;4.50;;
68140;SDS011;54941;52.220;104.306;2023-07-22T08:22:32;5.32;;;3.92;;
68140;SDS011;54941;52.220;104.306;2023-07-22T08:24:58;4.90;;;3.65;;
68140;SDS011;54941;52.220;104.306;2023-07-22T08:27:25;7.07;;;4.22;;
68140;SDS011;54941;52.220;104.306;2023-07-22T08:29:53;5.45;;;4.43;;
68140;SDS011;54941;52.220;104.306;2023-07-22T08:32:19;5.85;;;3.78;;
68140;SDS011;54941;52.220;104.306;2023-07-22T08:34:46;5.65;;;4.05;;
68140;SDS011;54941;52.220;104.306;2023-07-22T08:37:12;5.78;;;3.85;;
68140;SDS011;54941;52.220;104.306;2023-07-22T08:39:38;5.13;;;3.75;;
68140;SDS011;54941;52.220;104.306;2023-07-22T08:42:05;5.38;;;3.50;;
68140;SDS011;54941;52.220;104.306;2023-07-22T08:44:33;5.57;;;4.50;;
68140;SDS011;54941;52.220;104.306;2023-07-22T08:47:05;5.18;;;4.15;;
68140;SDS011;54941;52.220;104.306;2023-07-22T08:49:34;5.25;;;3.92;;
68140;SDS011;54941;52.220;104.306;2023-07-22T08:52:03;5.55;;;3.88;;
68140;SDS011;54941;52.220;104.306;2023-07-22T08:54:30;6.15;;;4.07;;
68140;SDS011;54941;52.220;104.306;2023-07-22T08:56:56;5.60;;;3.83;;
68140;SDS011;54941;52.220;104.306;2023-07-22T08:59:24;4.90;;;3.55;;
68140;SDS011;54941;52.220;104.306;2023-07-22T09:01:50;5.75;;;4.70;;
68140;SDS011;54941;52.220;104.306;2023-07-22T09:04:19;5.13;;;3.85;;
68140;SDS011;54941;52.220;104.306;2023-07-22T09:06:46;6.90;;;4.18;;
68140;SDS011;54941;52.220;104.306;2023-07-22T09:09:12;5.57;;;4.00;;
68140;SDS011;54941;52.220;104.306;2023-07-22T09:11:39;5.43;;;4.10;;
68140;SDS011;54941;52.220;104.306;2023-07-22T09:14:06;5.90;;;4.70;;
68140;SDS011;54941;52.220;104.306;2023-07-22T09:16:32;6.07;;;4.78;;
68140;SDS011;54941;52.220;104.306;2023-07-22T09:19:02;5.97;;;3.92;;
68140;SDS011;54941;52.220;104.306;2023-07-22T09:21:31;6.32;;;4.50;;
68140;SDS011;54941;52.220;104.306;2023-07-22T09:23:57;5.13;;;4.00;;
68140;SDS011;54941;52.220;104.306;2023-07-22T09:26:23;6.38;;;4.32;;
68140;SDS011;54941;52.220;104.306;2023-07-22T09:28:50;5.32;;;4.10;;
68140;SDS011;54941;52.220;104.306;2023-07-22T09:31:18;6.28;;;4.45;;
68140;SDS011;54941;52.220;104.306;2023-07-22T09:33:44;6.72;;;4.43;;
68140;SDS011;54941;52.220;104.306;2023-07-22T09:36:10;5.38;;;4.10;;
68140;SDS011;54941;52.220;104.306;2023-07-22T09:38:42;6.25;;;4.47;;
68140;SDS011;54941;52.220;104.306;2023-07-22T09:41:08;5.35;;;4.55;;
68140;SDS011;54941;52.220;104.306;2023-07-22T09:43:37;5.43;;;4.15;;
68140;SDS011;54941;52.220;104.306;2023-07-22T09:46:07;6.75;;;4.55;;
68140;SDS011;54941;52.220;104.306;2023-07-22T09:48:41;6.70;;;4.75;;
68140;SDS011;54941;52.220;104.306;2023-07-22T09:51:11;5.53;;;4.10;;
68140;SDS011;54941;52.220;104.306;2023-07-22T09:53:45;6.60;;;4.18;;
68140;SDS011;54941;52.220;104.306;2023-07-22T09:56:12;7.95;;;5.00;;
68140;SDS011;54941;52.220;104.306;2023-07-22T09:58:38;6.07;;;4.63;;
68140;SDS011;54941;52.220;104.306;2023-07-22T10:01:06;6.68;;;4.80;;
68140;SDS011;54941;52.220;104.306;2023-07-22T10:03:33;5.38;;;4.13;;
68140;SDS011;54941;52.220;104.306;2023-07-22T10:06:05;8.55;;;4.63;;
68140;SDS011;54941;52.220;104.306;2023-07-22T10:08:34;5.55;;;4.10;;
68140;SDS011;54941;52.220;104.306;2023-07-22T10:11:03;5.82;;;4.63;;
68140;SDS011;54941;52.220;104.306;2023-07-22T10:13:31;6.68;;;4.30;;
68140;SDS011;54941;52.220;104.306;2023-07-22T10:15:58;8.73;;;5.25;;
68140;SDS011;54941;52.220;104.306;2023-07-22T10:18:25;6.30;;;4.00;;
68140;SDS011;54941;52.220;104.306;2023-07-22T10:20:52;7.85;;;5.75;;
68140;SDS011;54941;52.220;104.306;2023-07-22T10:23:20;7.15;;;4.43;;
68140;SDS011;54941;52.220;104.306;2023-07-22T10:25:49;6.35;;;4.18;;
68140;SDS011;54941;52.220;104.306;2023-07-22T10:28:21;5.68;;;4.13;;
68140;SDS011;54941;52.220;104.306;2023-07-22T10:33:13;5.93;;;4.50;;
68140;SDS011;54941;52.220;104.306;2023-07-22T10:35:40;7.75;;;4.45;;
68140;SDS011;54941;52.220;104.306;2023-07-22T10:38:09;6.07;;;4.50;;
68140;SDS011;54941;52.220;104.306;2023-07-22T10:40:47;5.60;;;3.58;;
68140;SDS011;54941;52.220;104.306;2023-07-22T10:43:15;6.43;;;4.32;;
68140;SDS011;54941;52.220;104.306;2023-07-22T10:45:50;6.90;;;4.40;;
68140;SDS011;54941;52.220;104.306;2023-07-22T10:48:17;5.25;;;4.00;;
68140;SDS011;54941;52.220;104.306;2023-07-22T10:50:48;5.38;;;4.20;;
68140;SDS011;54941;52.220;104.306;2023-07-22T10:53:20;6.47;;;4.90;;
68140;SDS011;54941;52.220;104.306;2023-07-22T10:56:08;5.25;;;4.22;;
68140;SDS011;54941;52.220;104.306;2023-07-22T11:01:25;4.93;;;3.70;;
68140;SDS011;54941;52.220;104.306;2023-07-22T11:06:52;5.68;;;4.22;;
68140;SDS011;54941;52.220;104.306;2023-07-22T11:12:02;5.90;;;4.25;;
68140;SDS011;54941;52.220;104.306;2023-07-22T11:14:30;5.30;;;4.37;;
68140;SDS011;54941;52.220;104.306;2023-07-22T11:17:00;5.70;;;3.70;;
68140;SDS011;54941;52.220;104.306;2023-07-22T11:19:27;10.07;;;5.15;;
68140;SDS011;54941;52.220;104.306;2023-07-22T11:21:54;6.47;;;4.72;;
68140;SDS011;54941;52.220;104.306;2023-07-22T11:24:20;7.55;;;5.80;;
68140;SDS011;54941;52.220;104.306;2023-07-22T11:26:47;8.35;;;6.05;;
68140;SDS011;54941;52.220;104.306;2023-07-22T11:29:14;5.90;;;4.18;;
68140;SDS011;54941;52.220;104.306;2023-07-22T11:31:42;6.25;;;4.20;;
68140;SDS011;54941;52.220;104.306;2023-07-22T11:34:11;5.70;;;4.47;;
68140;SDS011;54941;52.220;104.306;2023-07-22T11:36:38;6.53;;;4.47;;
68140;SDS011;54941;52.220;104.306;2023-07-22T11:39:06;6.32;;;5.00;;
68140;SDS011;54941;52.220;104.306;2023-07-22T11:41:34;7.10;;;5.28;;
68140;SDS011;54941;52.220;104.306;2023-07-22T11:44:01;7.03;;;4.93;;
68140;SDS011;54941;52.220;104.306;2023-07-22T11:46:29;6.45;;;4.43;;
68140;SDS011;54941;52.220;104.306;2023-07-22T11:48:55;6.78;;;5.35;;
68140;SDS011;54941;52.220;104.306;2023-07-22T11:51:24;8.40;;;6.43;;
68140;SDS011;54941;52.220;104.306;2023-07-22T11:53:51;5.78;;;4.50;;
68140;SDS011;54941;52.220;104.306;2023-07-22T11:56:19;6.97;;;4.82;;
68140;SDS011;54941;52.220;104.306;2023-07-22T11:58:50;10.00;;;6.80;;
68140;SDS011;54941;52.220;104.306;2023-07-22T12:01:16;9.32;;;6.80;;
68140;SDS011;54941;52.220;104.306;2023-07-22T12:03:43;8.65;;;5.90;;
68140;SDS011;54941;52.220;104.306;2023-07-22T12:06:10;9.52;;;5.95;;
68140;SDS011;54941;52.220;104.306;2023-07-22T12:08:42;10.77;;;8.60;;
68140;SDS011;54941;52.220;104.306;2023-07-22T12:11:15;12.88;;;9.57;;
68140;SDS011;54941;52.220;104.306;2023-07-22T12:13:42;14.13;;;8.90;;
68140;SDS011;54941;52.220;104.306;2023-07-22T12:16:08;11.13;;;7.88;;
68140;SDS011;54941;52.220;104.306;2023-07-22T12:18:41;15.18;;;9.20;;
68140;SDS011;54941;52.220;104.306;2023-07-22T12:21:08;14.48;;;9.52;;
68140;SDS011;54941;52.220;104.306;2023-07-22T12:23:35;12.38;;;7.95;;
68140;SDS011;54941;52.220;104.306;2023-07-22T12:26:04;11.85;;;8.30;;
68140;SDS011;54941;52.220;104.306;2023-07-22T12:28:30;8.43;;;6.28;;
68140;SDS011;54941;52.220;104.306;2023-07-22T12:30:57;12.07;;;7.00;;
68140;SDS011;54941;52.220;104.306;2023-07-22T12:33:23;10.38;;;7.00;;
68140;SDS011;54941;52.220;104.306;2023-07-22T12:35:49;8.43;;;6.28;;
68140;SDS011;54941;52.220;104.306;2023-07-22T12:38:16;9.50;;;6.07;;
68140;SDS011;54941;52.220;104.306;2023-07-22T12:40:44;9.52;;;6.03;;
68140;SDS011;54941;52.220;104.306;2023-07-22T12:43:10;10.18;;;6.75;;
68140;SDS011;54941;52.220;104.306;2023-07-22T12:45:37;11.60;;;6.70;;
68140;SDS011;54941;52.220;104.306;2023-07-22T12:48:03;9.65;;;6.57;;
68140;SDS011;54941;52.220;104.306;2023-07-22T12:50:30;12.30;;;7.05;;
68140;SDS011;54941;52.220;104.306;2023-07-22T12:52:56;10.10;;;7.35;;
68140;SDS011;54941;52.220;104.306;2023-07-22T12:55:23;10.98;;;7.60;;
68140;SDS011;54941;52.220;104.306;2023-07-22T12:57:51;10.27;;;6.10;;
68140;SDS011;54941;52.220;104.306;2023-07-22T13:00:17;11.15;;;7.25;;
68140;SDS011;54941;52.220;104.306;2023-07-22T13:02:44;12.98;;;8.50;;
68140;SDS011;54941;52.220;104.306;2023-07-22T13:05:10;15.98;;;10.85;;
68140;SDS011;54941;52.220;104.306;2023-07-22T13:07:37;12.32;;;7.78;;
68140;SDS011;54941;52.220;104.306;2023-07-22T13:10:03;11.15;;;6.40;;
68140;SDS011;54941;52.220;104.306;2023-07-22T13:12:30;9.60;;;6.60;;
68140;SDS011;54941;52.220;104.306;2023-07-22T13:14:58;8.25;;;6.40;;
68140;SDS011;54941;52.220;104.306;2023-07-22T13:17:25;8.73;;;6.80;;
68140;SDS011;54941;52.220;104.306;2023-07-22T13:19:51;10.18;;;6.20;;
68140;SDS011;54941;52.220;104.306;2023-07-22T13:22:17;8.45;;;5.03;;
68140;SDS011;54941;52.220;104.306;2023-07-22T13:24:44;8.65;;;6.35;;
68140;SDS011;54941;52.220;104.306;2023-07-22T13:27:10;8.00;;;6.05;;
68140;SDS011;54941;52.220;104.306;2023-07-22T13:29:36;7.40;;;5.95;;
68140;SDS011;54941;52.220;104.306;2023-07-22T13:32:05;8.13;;;5.93;;
68140;SDS011;54941;52.220;104.306;2023-07-22T13:34:32;9.93;;;6.68;;
68140;SDS011;54941;52.220;104.306;2023-07-22T13:36:58;7.95;;;5.38;;
68140;SDS011;54941;52.220;104.306;2023-07-22T13:39:25;7.75;;;5.15;;
68140;SDS011;54941;52.220;104.306;2023-07-22T13:41:51;8.43;;;5.18;;
68140;SDS011;54941;52.220;104.306;2023-07-22T13:44:18;7.95;;;5.43;;
68140;SDS011;54941;52.220;104.306;2023-07-22T13:46:44;7.88;;;5.53;;
68140;SDS011;54941;52.220;104.306;2023-07-22T13:49:12;8.75;;;5.93;;
68140;SDS011;54941;52.220;104.306;2023-07-22T13:51:38;9.38;;;5.97;;
68140;SDS011;54941;52.220;104.306;2023-07-22T13:54:04;7.15;;;4.63;;
68140;SDS011;54941;52.220;104.306;2023-07-22T13:56:31;9.95;;;5.60;;
68140;SDS011;54941;52.220;104.306;2023-07-22T13:58:57;11.00;;;5.35;;
68140;SDS011;54941;52.220;104.306;2023-07-22T14:01:25;7.72;;;5.32;;
68140;SDS011;54941;52.220;104.306;2023-07-22T14:03:51;13.25;;;6.88;;
68140;SDS011;54941;52.220;104.306;2023-07-22T14:06:19;13.98;;;8.63;;
68140;SDS011;54941;52.220;104.306;2023-07-22T14:08:46;12.25;;;7.20;;
68140;SDS011;54941;52.220;104.306;2023-07-22T14:11:20;12.35;;;7.85;;
68140;SDS011;54941;52.220;104.306;2023-07-22T14:13:47;10.15;;;5.75;;
68140;SDS011;54941;52.220;104.306;2023-07-22T14:16:13;9.77;;;7.05;;
68140;SDS011;54941;52.220;104.306;2023-07-22T14:18:39;10.00;;;7.03;;
68140;SDS011;54941;52.220;104.306;2023-07-22T14:21:06;9.60;;;6.00;;
68140;SDS011;54941;52.220;104.306;2023-07-22T14:23:33;7.57;;;5.25;;
68140;SDS011;54941;52.220;104.306;2023-07-22T14:26:00;8.23;;;5.38;;
68140;SDS011;54941;52.220;104.306;2023-07-22T14:28:26;12.52;;;6.60;;
68140;SDS011;54941;52.220;104.306;2023-07-22T14:30:52;10.40;;;6.82;;